Time;durP1;ratioP1;P1;durP2;ratioP2;P2;SDS_P1;SDS_P2;PMS_P1;PMS_P2;Temp;Humidity;BMP_temperature;BMP_pressure;BME280_temperature;BME280_humidity;BME280_pressure;Samples;Min_cycle;Max_cycle;Signal;HPM_P1;HPM_P2
2021/06/24 00:01:36;;;;;;;;;12.25;11.75;;;;;16.08;94.48;101418.84;4878693;29;45665;-84
2021/06/24 00:04:02;;;;;;;;;13.00;11.75;;;;;15.97;94.03;101398.56;4860428;29;47507;-84
2021/06/24 00:06:27;;;;;;;;;14.75;11.25;;;;;15.95;94.14;101396.03;4877859;29;45672;-86
2021/06/24 00:12:15;;;;;;;;;12.00;11.00;;;;;16.08;94.16;101419.69;4877645;29;45697;-84
2021/06/24 00:14:40;;;;;;;;;14.00;13.00;;;;;15.84;93.99;101374.06;4877680;29;45654;-84
2021/06/24 00:17:06;;;;;;;;;15.50;12.25;;;;;16.00;94.08;101411.53;4877867;29;46246;-83
2021/06/24 00:19:32;;;;;;;;;16.50;14.00;;;;;16.14;94.01;101427.09;4876373;29;45665;-82
2021/06/24 00:21:57;;;;;;;;;12.25;10.50;;;;;16.02;94.31;101408.75;4860330;29;45718;-84
2021/06/24 00:24:22;;;;;;;;;11.75;11.00;;;;;16.06;94.36;101415.47;4877918;29;45605;-86
2021/06/24 00:26:48;;;;;;;;;11.25;11.25;;;;;15.82;93.91;101371.56;4877614;29;45782;-82
2021/06/24 00:29:13;;;;;;;;;12.50;12.50;;;;;15.86;94.11;101375.66;4877627;29;45627;-81
2021/06/24 00:31:38;;;;;;;;;10.00;8.25;;;;;16.07;94.12;101403.94;4878174;29;45895;-83
2021/06/24 00:34:04;;;;;;;;;14.25;12.00;;;;;16.10;94.13;101404.53;4877995;29;45626;-86
2021/06/24 00:36:29;;;;;;;;;12.75;11.50;;;;;15.78;94.49;101354.28;4877918;29;45659;-84
2021/06/24 00:42:18;;;;;;;;;14.00;13.25;;;;;16.13;94.44;101414.03;4880545;29;45660;-84
2021/06/24 00:44:44;;;;;;;;;12.75;11.75;;;;;15.84;94.05;101363.50;4880315;29;45731;-86
2021/06/24 00:47:09;;;;;;;;;13.25;12.50;;;;;16.09;94.13;101409.91;4880429;29;45584;-87
2021/06/24 00:49:35;;;;;;;;;10.75;10.00;;;;;16.08;93.98;101417.03;4881686;29;45957;-86
2021/06/24 00:52:00;;;;;;;;;10.00;8.75;;;;;15.91;94.31;101386.69;4880261;29;45932;-86
2021/06/24 00:54:25;;;;;;;;;11.50;10.50;;;;;15.82;94.16;101374.19;4880279;29;47833;-81
2021/06/24 00:56:51;;;;;;;;;11.00;10.25;;;;;15.85;94.09;101373.97;4880290;29;48418;-84
2021/06/24 00:59:17;;;;;;;;;11.25;11.00;;;;;15.89;93.96;101374.53;4882074;29;45489;-84
2021/06/24 01:01:42;;;;;;;;;12.00;11.00;;;;;15.99;93.96;101396.63;4882402;29;45771;-84
2021/06/24 01:04:08;;;;;;;;;10.00;9.75;;;;;16.01;93.82;101396.50;4882447;29;45706;-83
2021/06/24 01:06:33;;;;;;;;;12.50;11.25;;;;;15.95;94.09;101389.91;4884651;29;46261;-82
2021/06/24 01:12:21;;;;;;;;;11.50;11.00;;;;;15.85;93.71;101381.88;4880564;29;45663;-82
2021/06/24 01:14:49;;;;;;;;;11.00;11.00;;;;;15.81;94.05;101375.19;4880623;29;45664;-82
2021/06/24 01:17:15;;;;;;;;;12.00;12.00;;;;;15.72;94.02;101370.63;4881423;29;46119;-81
2021/06/24 01:19:40;;;;;;;;;11.00;10.00;;;;;15.56;94.37;101338.47;4880497;29;45565;-83
2021/06/24 01:28:30;;;;;;;;;11.25;8.50;;;;;15.74;94.03;101375.78;4884647;29;46101;-85
2021/06/24 01:30:56;;;;;;;;;11.25;11.00;;;;;15.66;93.75;101370.25;4884967;29;45830;-84
2021/06/24 01:33:24;;;;;;;;;11.50;10.50;;;;;15.82;93.91;101395.34;4870603;29;45613;-83
2021/06/24 01:35:57;;;;;;;;;11.25;11.00;;;;;15.81;93.78;101385.75;4869438;29;48313;-85
2021/06/24 01:38:22;;;;;;;;;11.00;10.00;;;;;15.74;93.98;101378.44;4887091;29;46210;-83
2021/06/24 01:40:47;;;;;;;;;12.00;10.75;;;;;15.48;93.97;101330.31;4886620;29;45563;-81
2021/06/24 01:43:13;;;;;;;;;11.00;11.00;;;;;15.70;94.23;101367.28;4868350;29;45895;-83
2021/06/24 01:45:49;;;;;;;;;12.25;10.50;;;;;15.61;94.11;101341.59;4879837;29;45580;-82
2021/06/24 01:48:15;;;;;;;;;13.00;11.75;;;;;15.77;94.24;101370.25;4862588;29;47659;-82
2021/06/24 01:50:41;;;;;;;;;12.75;11.00;;;;;15.77;94.22;101370.25;4880045;29;45855;-82
2021/06/24 01:53:10;;;;;;;;;11.50;9.50;;;;;15.63;93.85;101344.94;4877890;29;45674;-84
2021/06/24 01:55:36;;;;;;;;;11.25;9.00;;;;;15.64;93.86;101351.06;4877496;29;47416;-83
2021/06/24 01:58:04;;;;;;;;;13.00;11.75;;;;;15.52;94.05;101329.13;4879114;29;46035;-83
2021/06/24 02:00:30;;;;;;;;;10.00;10.00;;;;;15.47;94.15;101310.97;4879669;29;45822;-84
2021/06/24 02:02:56;;;;;;;;;9.75;9.50;;;;;15.71;94.06;101349.63;4879439;29;45653;-84
2021/06/24 02:05:22;;;;;;;;;14.00;11.50;;;;;15.55;94.14;101323.56;4879217;29;46993;-83
2021/06/24 02:07:48;;;;;;;;;12.75;10.75;;;;;15.66;94.02;101346.50;4879113;29;45645;-82
2021/06/24 02:10:15;;;;;;;;;10.50;10.25;;;;;15.63;94.20;101337.03;4879920;29;45636;-82
2021/06/24 02:12:40;;;;;;;;;11.75;11.00;;;;;15.73;93.93;101352.97;4863258;29;45629;-83
2021/06/24 02:15:12;;;;;;;;;10.75;10.00;;;;;15.73;94.03;101356.44;4879541;29;45849;-83
2021/06/24 02:17:38;;;;;;;;;16.75;13.00;;;;;15.71;93.53;101350.44;4861821;29;46371;-83
2021/06/24 02:20:09;;;;;;;;;13.50;11.25;;;;;15.69;93.52;101346.25;4879006;29;45872;-83
2021/06/24 02:22:34;;;;;;;;;11.25;11.00;;;;;15.69;93.96;101335.69;4879400;29;45805;-83
2021/06/24 02:25:00;;;;;;;;;9.00;9.00;;;;;15.51;93.94;101306.28;4876930;29;47719;-83
2021/06/24 02:27:25;;;;;;;;;9.00;9.00;;;;;15.54;93.88;101311.34;4879112;29;45529;-82
2021/06/24 02:29:51;;;;;;;;;12.75;11.00;;;;;15.57;93.61;101318.19;4879085;29;46094;-84
2021/06/24 02:32:16;;;;;;;;;11.50;9.75;;;;;15.64;93.90;101337.88;4877689;29;45954;-83
2021/06/24 02:34:43;;;;;;;;;10.75;9.75;;;;;15.53;93.67;101322.88;4879110;29;46518;-83
2021/06/24 02:37:08;;;;;;;;;9.50;9.00;;;;;15.49;93.88;101314.31;4879114;29;45750;-82
2021/06/24 02:42:55;;;;;;;;;11.25;9.25;;;;;15.63;93.97;101339.66;4878255;29;45775;-83
2021/06/24 02:45:21;;;;;;;;;10.00;10.00;;;;;15.34;93.65;101285.66;4879008;29;45625;-84
2021/06/24 02:47:46;;;;;;;;;11.00;11.00;;;;;15.39;93.71;101288.75;4878998;29;46639;-84
2021/06/24 02:50:12;;;;;;;;;11.00;10.00;;;;;15.60;93.62;101324.03;4878790;29;45563;-82
2021/06/24 02:52:38;;;;;;;;;10.75;10.25;;;;;15.66;93.88;101335.91;4878785;29;45635;-82
2021/06/24 02:55:05;;;;;;;;;12.00;10.00;;;;;15.62;93.74;101323.94;4879132;29;45742;-84
2021/06/24 02:57:30;;;;;;;;;11.50;11.00;;;;;15.49;93.64;101305.56;4862269;29;47132;-84
2021/06/24 02:59:56;;;;;;;;;12.75;10.00;;;;;15.68;93.56;101332.22;4879484;29;45650;-83
2021/06/24 03:02:21;;;;;;;;;11.25;11.00;;;;;15.53;93.72;101315.81;4878661;29;45602;-83
2021/06/24 03:04:47;;;;;;;;;9.75;9.75;;;;;15.55;93.38;101317.50;4878653;29;45586;-83
2021/06/24 03:07:12;;;;;;;;;12.00;11.75;;;;;15.58;93.60;101323.34;4878435;29;45583;-83
2021/06/24 03:13:00;;;;;;;;;17.00;11.50;;;;;15.49;93.52;101316.97;4878482;29;45701;-83
2021/06/24 03:15:27;;;;;;;;;10.25;10.00;;;;;15.36;93.57;101296.94;4878474;29;46538;-81
2021/06/24 03:17:53;;;;;;;;;11.00;10.00;;;;;15.59;93.78;101330.31;4878546;29;45625;-85
2021/06/24 03:27:14;;;;;;;;;8.50;8.50;;;;;15.26;93.79;101290.72;4747884;29;45709;-86
2021/06/24 03:29:40;;;;;;;;;12.75;9.50;;;;;15.48;93.64;101332.94;4732565;29;48167;-85
2021/06/24 03:32:05;;;;;;;;;12.75;11.00;;;;;15.51;94.05;101346.78;4747624;29;45783;-84
2021/06/24 03:34:31;;;;;;;;;10.50;10.00;;;;;15.42;93.99;101329.00;4747946;29;45951;-83
2021/06/24 03:36:56;;;;;;;;;12.00;11.00;;;;;15.50;93.54;101341.56;4748427;29;46327;-82
2021/06/24 03:42:45;;;;;;;;;10.00;9.00;;;;;15.39;93.59;101318.66;4747887;29;45719;-83
2021/06/24 03:45:11;;;;;;;;;9.50;9.50;;;;;15.36;93.82;101326.00;4748811;29;45771;-82
2021/06/24 03:47:36;;;;;;;;;12.00;10.00;;;;;15.20;93.29;101305.25;4748280;29;48438;-83
2021/06/24 03:50:03;;;;;;;;;10.25;8.25;;;;;15.44;93.59;101334.13;4748770;29;46096;-81
2021/06/24 03:52:29;;;;;;;;;13.25;12.00;;;;;15.36;93.69;101324.19;4753799;29;45627;-84
2021/06/24 03:58:16;;;;;;;;;8.25;8.25;;;;;15.04;93.42;101273.13;4754228;29;46367;-83
2021/06/24 04:00:44;;;;;;;;;12.75;9.75;;;;;15.16;93.71;101308.25;4819970;29;45742;-83
2021/06/24 04:03:11;;;;;;;;;10.00;10.00;;;;;15.29;93.66;101338.00;4883879;29;45715;-81
2021/06/24 04:05:37;;;;;;;;;12.00;9.75;;;;;15.12;93.11;101323.47;4879075;29;45642;-83
2021/06/24 04:08:06;;;;;;;;;8.75;8.25;;;;;15.23;93.64;101344.59;4877855;29;45821;-84
2021/06/24 04:10:32;;;;;;;;;9.00;8.75;;;;;15.24;93.68;101348.06;4878028;29;46483;-83
2021/06/24 04:12:59;;;;;;;;;11.25;10.50;;;;;14.95;93.14;101303.69;4877507;29;45702;-83
2021/06/24 04:15:26;;;;;;;;;17.50;15.75;;;;;14.99;93.16;101315.72;4877844;29;45626;-83
2021/06/24 04:17:51;;;;;;;;;10.00;9.25;;;;;15.09;93.51;101340.41;4860902;29;47310;-83
2021/06/24 04:20:17;;;;;;;;;63.75;50.00;;;;;15.10;93.26;101344.75;4861077;29;48187;-84
2021/06/24 04:22:44;;;;;;;;;189.25;161.25;;;;;14.81;93.29;101300.44;4880991;29;45800;-84
2021/06/24 04:28:31;;;;;;;;;6.50;6.25;;;;;14.99;93.29;101344.72;4880317;29;46050;-83
2021/06/24 04:30:56;;;;;;;;;16.75;16.50;;;;;14.93;92.93;101344.38;4881201;29;46262;-83
2021/06/24 04:33:22;;;;;;;;;11.75;10.25;;;;;14.65;93.49;101295.53;4880628;29;45628;-83
2021/06/24 04:35:47;;;;;;;;;72.50;57.00;;;;;14.71;93.37;101310.88;4881320;29;45716;-85
2021/06/24 04:38:14;;;;;;;;;15.75;11.50;;;;;14.97;93.51;101357.19;4880235;29;45885;-83
2021/06/24 04:40:39;;;;;;;;;12.75;9.25;;;;;14.92;93.13;101351.44;4880173;29;46038;-83
2021/06/24 04:43:05;;;;;;;;;78.75;63.00;;;;;14.83;93.48;101335.47;4879979;29;46320;-82
2021/06/24 04:45:30;;;;;;;;;70.75;51.75;;;;;14.93;93.08;101363.69;4880875;29;45722;-80
2021/06/24 04:47:56;;;;;;;;;38.25;31.25;;;;;14.63;93.06;101322.00;4862540;29;47525;-84
2021/06/24 04:50:21;;;;;;;;;20.75;16.50;;;;;14.90;93.14;101363.91;4881214;29;45624;-85
2021/06/24 04:52:46;;;;;;;;;16.50;15.25;;;;;14.81;92.68;101356.69;4863865;29;45587;-83
2021/06/24 04:58:35;;;;;;;;;19.50;17.50;;;;;14.85;93.15;101368.69;4880079;29;45683;-83
2021/06/24 05:01:00;;;;;;;;;10.75;9.75;;;;;14.57;93.35;101321.66;4879888;29;46313;-85
2021/06/24 05:03:25;;;;;;;;;10.75;8.25;;;;;14.64;93.31;101339.53;4878679;29;45952;-85
2021/06/24 05:05:51;;;;;;;;;13.75;10.50;;;;;14.74;92.98;101347.56;4879899;29;45657;-84
2021/06/24 05:08:18;;;;;;;;;11.25;10.00;;;;;14.60;93.21;101334.59;4879648;29;46605;-83
2021/06/24 05:10:44;;;;;;;;;13.00;11.25;;;;;14.74;92.69;101357.31;4879513;29;46120;-83
2021/06/24 05:13:10;;;;;;;;;8.50;8.50;;;;;14.82;92.90;101368.09;4862233;29;45828;-84
2021/06/24 05:15:36;;;;;;;;;12.00;10.25;;;;;14.54;92.93;101327.16;4880192;29;45762;-82
2021/06/24 05:18:04;;;;;;;;;12.75;8.75;;;;;14.78;93.15;101361.38;4863980;29;47294;-82
2021/06/24 05:20:59;;;;;;;;;8.25;8.00;;;;;14.76;93.02;101371.19;4880680;29;46213;-82
2021/06/24 05:23:25;;;;;;;;;10.00;9.00;;;;;14.73;93.43;101369.66;4861991;29;45946;-82
2021/06/24 05:25:50;;;;;;;;;7.75;7.50;;;;;14.56;92.98;101341.06;4880604;29;45597;-84
2021/06/24 05:28:16;;;;;;;;;10.50;10.50;;;;;14.61;93.12;101365.28;4863323;29;47540;-86
2021/06/24 05:30:41;;;;;;;;;14.00;9.75;;;;;14.68;93.00;101371.81;4864307;29;46293;-87
2021/06/24 05:33:07;;;;;;;;;13.00;12.25;;;;;14.65;93.02;101369.38;4879904;29;45679;-85
2021/06/24 05:35:32;;;;;;;;;13.50;10.00;;;;;14.62;92.95;101357.28;4880625;29;45596;-83
2021/06/24 05:37:58;;;;;;;;;8.50;8.50;;;;;14.61;93.19;101345.03;4880037;29;46453;-85
2021/06/24 05:43:45;;;;;;;;;12.00;9.00;;;;;14.34;93.29;101294.38;4879476;29;45819;-82
2021/06/24 05:46:10;;;;;;;;;11.00;11.00;;;;;14.37;93.40;101306.50;4880697;29;45804;-82
2021/06/24 05:48:36;;;;;;;;;11.00;10.00;;;;;14.42;93.31;101330.72;4880262;29;46142;-82
2021/06/24 05:51:01;;;;;;;;;11.25;11.25;;;;;14.55;92.85;101353.41;4879843;29;45688;-82
2021/06/24 05:53:26;;;;;;;;;13.25;9.75;;;;;14.49;93.32;101350.41;4862823;29;45817;-82
2021/06/24 05:59:14;;;;;;;;;14.25;13.25;;;;;14.50;93.00;101368.75;4879505;29;45673;-83
2021/06/24 06:01:43;;;;;;;;;11.50;11.00;;;;;14.28;93.12;101324.66;4880102;29;46031;-83
2021/06/24 06:04:09;;;;;;;;;10.50;9.00;;;;;14.50;93.33;101375.81;4880082;29;45777;-85
2021/06/24 06:06:35;;;;;;;;;13.00;11.75;;;;;14.42;93.02;101371.09;4881157;29;45789;-83
2021/06/24 06:09:00;;;;;;;;;11.00;10.50;;;;;14.50;92.94;101378.44;4880559;29;46036;-86
2021/06/24 06:11:26;;;;;;;;;12.00;11.50;;;;;14.48;93.18;101381.19;4862515;29;47385;-83
2021/06/24 06:13:51;;;;;;;;;11.00;9.75;;;;;14.18;93.17;101328.94;4880444;29;46079;-84
2021/06/24 06:16:17;;;;;;;;;15.00;12.00;;;;;14.21;93.29;101355.06;4879173;29;45611;-82
2021/06/24 06:18:42;;;;;;;;;9.50;9.00;;;;;14.29;92.88;101359.78;4879672;29;46352;-83
2021/06/24 06:21:08;;;;;;;;;13.50;12.50;;;;;14.19;93.09;101343.81;4880054;29;46059;-83
2021/06/24 06:23:33;;;;;;;;;12.25;11.75;;;;;14.37;93.34;101364.50;4878688;29;45801;-83
2021/06/24 06:29:20;;;;;;;;;14.50;13.00;;;;;14.51;93.21;101386.25;4878952;29;46135;-85
2021/06/24 06:31:46;;;;;;;;;10.25;9.25;;;;;14.22;93.17;101346.22;4878165;29;46144;-84
2021/06/24 06:34:11;;;;;;;;;9.00;8.25;;;;;14.43;93.14;101391.25;4881382;29;46153;-84
2021/06/24 06:36:37;;;;;;;;;12.25;11.50;;;;;14.38;93.38;101372.28;4880727;29;45852;-85
2021/06/24 06:39:03;;;;;;;;;13.50;11.25;;;;;14.38;92.96;101371.44;4882877;29;46413;-83
2021/06/24 06:41:29;;;;;;;;;12.50;10.50;;;;;14.52;93.13;101389.75;4881571;29;46649;-84
2021/06/24 06:43:54;;;;;;;;;11.75;10.00;;;;;14.34;93.52;101362.06;4880949;29;45686;-86
2021/06/24 06:46:20;;;;;;;;;11.00;8.50;;;;;14.60;93.16;101401.38;4883442;29;45643;-82
2021/06/24 06:48:46;;;;;;;;;9.00;9.00;;;;;14.61;93.24;101402.22;4866659;29;48778;-83
2021/06/24 06:51:11;;;;;;;;;13.00;12.00;;;;;14.45;93.34;101373.53;4882658;29;45508;-81
2021/06/24 06:53:37;;;;;;;;;13.75;12.00;;;;;14.46;93.36;101374.38;4880931;29;45547;-83
2021/06/24 06:59:24;;;;;;;;;13.00;11.25;;;;;14.53;93.06;101379.06;4880525;29;45608;-82
2021/06/24 07:01:50;;;;;;;;;13.25;10.00;;;;;14.45;92.93;101375.31;4881918;29;46233;-85
2021/06/24 07:04:15;;;;;;;;;12.75;11.25;;;;;14.67;92.90;101399.13;4882161;29;45616;-83
2021/06/24 07:06:42;;;;;;;;;10.00;10.00;;;;;14.69;93.18;101408.59;4882009;29;45878;-83
2021/06/24 07:09:08;;;;;;;;;12.00;11.00;;;;;14.51;93.25;101378.34;4881150;29;46451;-84
2021/06/24 07:11:33;;;;;;;;;12.50;11.50;;;;;14.73;92.97;101401.31;4865434;29;47240;-84
2021/06/24 07:13:59;;;;;;;;;15.50;13.50;;;;;14.67;93.23;101397.34;4865736;29;45712;-86
2021/06/24 07:16:25;;;;;;;;;14.50;11.75;;;;;14.68;92.70;101391.06;4863656;29;45988;-81
2021/06/24 07:18:50;;;;;;;;;12.75;11.75;;;;;14.75;92.93;101404.66;4880220;29;45500;-88
2021/06/24 07:21:16;;;;;;;;;10.00;10.00;;;;;14.68;93.28;101388.44;4879724;29;45898;-87
2021/06/24 07:23:41;;;;;;;;;12.50;12.25;;;;;14.76;93.16;101395.78;4879685;29;45731;-83
2021/06/24 07:29:28;;;;;;;;;14.00;14.00;;;;;14.81;92.72;101396.28;4879215;29;45929;-82
2021/06/24 07:31:53;;;;;;;;;13.00;10.75;;;;;14.75;93.08;101378.25;4879030;29;45694;-82
2021/06/24 07:34:19;;;;;;;;;14.00;11.50;;;;;14.87;92.64;101409.00;4879096;29;45661;-82
2021/06/24 07:36:45;;;;;;;;;9.50;9.25;;;;;14.94;93.20;101418.13;4878808;29;45440;-81
2021/06/24 07:39:11;;;;;;;;;11.25;10.75;;;;;14.85;92.73;101399.50;4878874;29;46446;-81
2021/06/24 07:41:37;;;;;;;;;8.75;8.50;;;;;14.93;92.58;101407.69;4878660;29;45611;-80
2021/06/24 07:44:02;;;;;;;;;16.00;11.25;;;;;14.93;93.03;101405.91;4878287;29;45608;-81
2021/06/24 07:46:28;;;;;;;;;11.25;11.00;;;;;14.93;92.85;101405.06;4878728;29;45553;-87
2021/06/24 07:48:56;;;;;;;;;12.25;10.50;;;;;14.75;92.67;101385.34;4878760;29;45958;-83
2021/06/24 07:51:21;;;;;;;;;13.75;12.75;;;;;14.96;92.63;101412.72;4879046;29;46051;-83
2021/06/24 07:53:47;;;;;;;;;11.75;10.75;;;;;14.98;92.56;101403.75;4879465;29;45628;-84
2021/06/24 07:59:34;;;;;;;;;10.25;9.25;;;;;15.03;92.37;101408.66;4882929;29;46114;-87
2021/06/24 08:02:00;;;;;;;;;16.50;12.75;;;;;15.00;92.46;101408.91;4882553;29;45800;-85
2021/06/24 08:04:25;;;;;;;;;16.25;13.00;;;;;15.03;92.47;101406.88;4883611;29;45669;-85
2021/06/24 08:06:52;;;;;;;;;15.75;14.50;;;;;15.02;92.74;101406.97;4883662;29;45722;-87
2021/06/24 08:09:17;;;;;;;;;12.75;10.00;;;;;15.05;92.40;101407.59;4882847;29;45678;-83
2021/06/24 08:11:43;;;;;;;;;13.00;12.25;;;;;15.10;92.69;101413.38;4882875;29;45604;-85
2021/06/24 08:14:08;;;;;;;;;10.75;10.00;;;;;15.00;92.60;101386.00;4882928;29;45683;-85
2021/06/24 08:16:35;;;;;;;;;12.25;11.25;;;;;15.15;92.63;101409.53;4883594;29;45621;-86
2021/06/24 08:19:01;;;;;;;;;12.75;10.00;;;;;14.93;92.40;101376.88;4882896;29;45882;-81
2021/06/24 08:21:26;;;;;;;;;15.50;13.75;;;;;15.17;92.38;101404.97;4881464;29;45666;-80
2021/06/24 08:23:52;;;;;;;;;11.00;10.75;;;;;15.21;92.18;101411.69;4881610;29;45868;-82
2021/06/24 08:29:39;;;;;;;;;13.50;10.00;;;;;15.28;92.51;101415.50;4881603;29;45568;-81
2021/06/24 08:32:04;;;;;;;;;10.75;10.25;;;;;15.33;92.07;101418.66;4881723;29;46594;-80
2021/06/24 08:34:30;;;;;;;;;13.00;11.00;;;;;15.36;92.18;101423.69;4881444;29;45572;-80
2021/06/24 08:36:55;;;;;;;;;12.25;9.00;;;;;15.32;92.03;101414.34;4881919;29;45700;-81
2021/06/24 08:39:20;;;;;;;;;10.75;10.25;;;;;15.42;92.02;101424.06;4881802;29;46057;-83
2021/06/24 08:45:11;;;;;;;;;12.50;11.00;;;;;15.53;92.20;101423.25;4880189;29;45900;-81
2021/06/24 08:47:36;;;;;;;;;10.00;10.00;;;;;15.51;91.81;101422.47;4864337;29;45603;-83
2021/06/24 08:50:04;;;;;;;;;11.25;10.25;;;;;15.57;91.84;101413.28;4881251;29;46203;-80
2021/06/24 08:52:29;;;;;;;;;13.25;11.75;;;;;15.56;91.99;101408.94;4881557;29;46989;-81
2021/06/24 08:54:54;;;;;;;;;14.25;12.75;;;;;15.62;92.05;101414.59;4882945;29;45671;-80
2021/06/24 08:57:20;;;;;;;;;15.00;13.00;;;;;15.70;92.01;101416.63;4885838;29;45650;-81
2021/06/24 08:59:46;;;;;;;;;12.75;11.00;;;;;15.74;91.78;101424.19;4887108;29;45685;-80
2021/06/24 09:02:14;;;;;;;;;11.75;9.75;;;;;15.59;91.81;101393.72;4886666;29;46150;-80
2021/06/24 09:04:48;;;;;;;;;17.00;14.00;;;;;15.84;91.66;101425.13;4868683;29;45841;-86
2021/06/24 09:07:22;;;;;;;;;11.75;10.75;;;;;15.90;91.70;101418.50;4881533;29;45559;-79
2021/06/24 09:09:56;;;;;;;;;15.25;13.00;;;;;15.86;91.79;101409.16;4881807;29;45818;-86
2021/06/24 09:12:23;;;;;;;;;15.50;13.50;;;;;15.92;91.74;101413.97;4865159;29;48080;-85
2021/06/24 09:14:53;;;;;;;;;13.00;12.00;;;;;16.08;91.65;101429.41;4865981;29;45958;-82
2021/06/24 09:17:34;;;;;;;;;14.75;12.25;;;;;16.14;91.55;101426.28;4881994;29;45707;-85
2021/06/24 09:20:01;;;;;;;;;14.50;13.25;;;;;16.14;91.68;101421.81;4882117;29;46478;-83
2021/06/24 09:22:26;;;;;;;;;13.25;12.00;;;;;16.02;91.50;101393.75;4886741;29;46030;-83
2021/06/24 09:24:53;;;;;;;;;11.75;10.50;;;;;16.18;91.51;101411.84;4897461;29;45472;-80
2021/06/24 09:27:21;;;;;;;;;13.50;11.50;;;;;16.38;91.50;101432.19;4876425;29;45725;-82
2021/06/24 09:29:59;;;;;;;;;12.25;10.25;;;;;16.35;91.28;101421.88;4886371;29;48549;-84
2021/06/24 09:32:33;;;;;;;;;11.50;10.00;;;;;16.35;91.23;101421.88;4882999;29;45514;-82
2021/06/24 09:35:01;;;;;;;;;12.00;11.00;;;;;16.46;91.28;101431.56;4883278;29;45842;-81
2021/06/24 09:37:27;;;;;;;;;14.00;12.75;;;;;16.57;91.30;101452.69;4882017;29;45722;-80
2021/06/24 09:39:55;;;;;;;;;10.00;10.00;;;;;16.57;91.50;101434.97;4880627;29;45722;-80
2021/06/24 09:42:21;;;;;;;;;11.50;11.25;;;;;16.59;91.35;101424.31;4881465;29;46029;-81
2021/06/24 09:44:48;;;;;;;;;13.00;11.50;;;;;16.59;91.61;101427.81;4881905;29;45660;-82
2021/06/24 09:47:29;;;;;;;;;11.75;10.25;;;;;16.70;91.11;101438.34;4883485;29;45510;-82
2021/06/24 09:50:07;;;;;;;;;13.50;12.75;;;;;16.67;91.24;101433.31;4880984;29;45807;-82
2021/06/24 09:52:34;;;;;;;;;12.50;11.00;;;;;16.77;90.89;101458.03;4881116;29;45916;-83
2021/06/24 09:55:03;;;;;;;;;13.25;12.50;;;;;16.82;90.99;101443.56;4863944;29;45415;-81
2021/06/24 09:57:29;;;;;;;;;11.00;10.75;;;;;16.83;91.27;101443.44;4880321;29;45952;-81
2021/06/24 09:59:54;;;;;;;;;13.00;12.25;;;;;16.87;90.85;101451.97;4863928;29;47679;-86
2021/06/24 10:02:20;;;;;;;;;13.25;11.50;;;;;16.89;91.18;101458.81;4881301;29;46261;-80
2021/06/24 10:04:47;;;;;;;;;10.00;9.00;;;;;16.92;91.27;101452.41;4881092;29;45589;-84
2021/06/24 10:07:15;;;;;;;;;12.50;11.25;;;;;16.65;90.76;101416.72;4881918;29;45625;-86
2021/06/24 10:09:42;;;;;;;;;13.00;12.00;;;;;16.73;90.71;101419.53;4864705;29;47636;-88
2021/06/24 10:15:32;;;;;;;;;12.00;11.25;;;;;16.99;90.82;101448.28;4880009;29;45805;-82
2021/06/24 10:17:57;;;;;;;;;14.50;12.50;;;;;17.00;90.82;101448.16;4879995;29;45615;-81
2021/06/24 10:20:26;;;;;;;;;13.00;11.50;;;;;16.95;90.36;101433.66;4880876;29;45726;-80
2021/06/24 10:23:16;;;;;;;;;10.50;9.25;;;;;17.06;90.55;101446.78;4863059;29;47318;-84
2021/06/24 10:25:44;;;;;;;;;11.50;10.75;;;;;17.00;90.61;101442.03;4865411;29;45662;-81
2021/06/24 10:28:10;;;;;;;;;13.00;12.00;;;;;17.11;90.67;101449.91;4879788;29;45617;-81
2021/06/24 10:30:39;;;;;;;;;11.00;10.00;;;;;16.99;91.04;101437.69;4879688;29;45766;-83
2021/06/24 10:33:09;;;;;;;;;12.50;9.75;;;;;17.12;90.53;101444.47;4879604;29;46015;-80
2021/06/24 10:35:37;;;;;;;;;12.00;11.25;;;;;17.05;91.15;101432.72;4880012;29;45859;-82
2021/06/24 10:38:03;;;;;;;;;13.75;12.75;;;;;17.25;90.80;101448.72;4879567;29;45526;-83
2021/06/24 10:40:34;;;;;;;;;14.50;13.50;;;;;17.21;90.80;101442.84;4864729;29;47659;-87
2021/06/24 10:43:03;;;;;;;;;13.00;12.50;;;;;17.36;89.97;101456.59;4885085;29;47689;-87
2021/06/24 10:45:30;;;;;;;;;11.50;10.75;;;;;17.18;89.88;101414.81;4869637;29;45829;-87
2021/06/24 10:47:57;;;;;;;;;12.50;11.75;;;;;17.27;89.75;101421.13;4887740;29;45471;-87
2021/06/24 10:50:32;;;;;;;;;10.75;10.25;;;;;17.54;89.97;101455.00;4869327;29;48189;-85
2021/06/24 10:53:05;;;;;;;;;12.00;11.50;;;;;17.49;89.95;101442.13;4867478;29;46969;-86
2021/06/24 10:55:31;;;;;;;;;11.25;11.00;;;;;17.65;89.47;101448.81;4869271;29;45931;-85
2021/06/24 10:57:56;;;;;;;;;12.00;11.75;;;;;17.43;89.83;101412.69;4864277;29;45790;-85
2021/06/24 11:00:33;;;;;;;;;12.50;10.50;;;;;17.77;89.37;101448.53;4864752;29;47534;-82
2021/06/24 11:03:00;;;;;;;;;12.00;11.00;;;;;17.75;89.67;101431.13;4882112;29;45912;-82
2021/06/24 11:05:37;;;;;;;;;13.25;11.75;;;;;17.83;89.35;101439.22;4882786;29;45680;-82
2021/06/24 11:08:11;;;;;;;;;12.00;11.50;;;;;17.87;89.75;101428.19;4881394;29;45439;-82
2021/06/24 11:11:03;;;;;;;;;15.25;13.75;;;;;18.03;89.38;101436.47;4883793;29;45525;-84
2021/06/24 11:13:34;;;;;;;;;10.50;9.50;;;;;18.09;89.71;101447.50;4886445;29;45883;-86
2021/06/24 11:16:00;;;;;;;;;12.25;11.75;;;;;17.98;89.64;101412.19;4890724;29;45801;-84
2021/06/24 11:18:32;;;;;;;;;12.25;11.25;;;;;18.19;89.48;101427.16;4873786;29;45912;-85
2021/06/24 11:21:00;;;;;;;;;12.75;11.25;;;;;18.18;89.79;101414.88;4871619;29;47815;-85
2021/06/24 11:23:34;;;;;;;;;12.75;12.00;;;;;17.99;89.57;101373.25;4889342;29;45601;-86
2021/06/24 11:26:11;;;;;;;;;11.75;11.00;;;;;18.18;89.86;101409.56;4867280;29;45545;-84
2021/06/24 11:28:53;;;;;;;;;13.00;12.50;;;;;18.33;89.07;101419.63;4881626;29;45672;-85
2021/06/24 11:32:06;;;;;;;;;12.00;12.00;;;;;18.04;89.17;101371.00;4880278;29;47485;-83
2021/06/24 11:34:53;;;;;;;;;12.50;11.75;;;;;18.37;88.82;101421.00;4881541;29;46836;-86
2021/06/24 11:37:37;;;;;;;;;13.50;12.00;;;;;18.02;89.48;101357.06;4864173;29;45599;-85
2021/06/24 11:40:07;;;;;;;;;13.25;11.50;;;;;18.44;88.57;101430.09;4881067;29;45790;-85
2021/06/24 11:42:41;;;;;;;;;12.50;11.50;;;;;18.24;88.49;101375.38;4862861;29;47445;-84
2021/06/24 11:45:09;;;;;;;;;14.25;12.75;;;;;18.43;88.79;101416.97;4880298;29;45586;-83
2021/06/24 11:47:38;;;;;;;;;12.50;11.25;;;;;18.46;88.67;101398.13;4862455;29;45909;-82
2021/06/24 12:03:04;;;;;;;;;14.00;13.50;;;;;18.84;88.23;101407.88;4879245;29;45675;-85
2021/06/24 12:04:45;;;;;;;;;12.75;11.00;;;;;18.72;87.72;101372.69;4878677;29;46576;-86
2021/06/24 12:07:11;;;;;;;;;13.75;10.00;;;;;18.66;88.05;101346.72;4878652;29;46059;-84
2021/06/24 12:09:51;;;;;;;;;14.75;13.25;;;;;18.92;88.03;101388.56;4879030;29;45484;-85
2021/06/24 12:15:38;;;;;;;;;10.25;9.25;;;;;18.96;87.92;101384.63;4879396;29;45572;-85
2021/06/24 12:18:04;;;;;;;;;8.75;8.75;;;;;19.17;87.80;101415.34;4879201;29;45587;-85
2021/06/24 12:20:29;;;;;;;;;10.75;10.00;;;;;18.99;88.19;101384.38;4879637;29;45679;-86
2021/06/24 12:23:02;;;;;;;;;8.25;8.00;;;;;18.81;87.77;101347.09;4880524;29;45770;-86
2021/06/24 12:31:38;;;;;;;;;9.50;8.50;;;;;19.10;87.48;101376.22;4884566;29;45531;-84
2021/06/24 12:34:09;;;;;;;;;7.75;7.50;;;;;19.27;87.10;101400.19;4864038;29;46084;-86
2021/06/24 12:36:36;;;;;;;;;11.00;9.50;;;;;19.23;87.22;101390.84;4861728;29;47803;-84
2021/06/24 12:39:03;;;;;;;;;9.75;9.50;;;;;19.37;87.30;101394.03;4861467;29;47428;-84
2021/06/24 12:41:29;;;;;;;;;10.00;9.25;;;;;19.43;87.32;101396.09;4861550;29;46182;-81
2021/06/24 12:44:03;;;;;;;;;9.25;8.00;;;;;19.46;87.64;101387.84;4881597;29;45619;-81
2021/06/24 12:46:32;;;;;;;;;9.50;8.75;;;;;19.44;87.38;101369.34;4863984;29;46941;-82
2021/06/24 12:49:03;;;;;;;;;9.00;8.75;;;;;19.62;87.34;101393.38;4881031;29;46034;-79